createdAt,value
2023-01-15T00:04:00.876Z,1001.7
2023-01-15T00:09:00.558Z,1001.7
2023-01-15T00:14:02.605Z,1001.7
2023-01-15T00:19:00.274Z,1001.7
2023-01-15T00:24:00.134Z,1001.7
2023-01-15T00:29:00.263Z,1001.5
2023-01-15T00:38:59.617Z,1001.4
2023-01-15T00:43:59.435Z,1001.4
2023-01-15T00:48:59.242Z,1001.5
2023-01-15T00:53:59.104Z,1001.5
2023-01-15T00:58:58.925Z,1001.6
2023-01-15T01:03:58.779Z,1001.7
2023-01-15T01:13:58.493Z,1001.7
2023-01-15T01:18:58.325Z,1001.6
2023-01-15T01:23:58.182Z,1001.6
2023-01-15T01:28:58.045Z,1001.7
2023-01-15T01:33:57.903Z,1001.7
2023-01-15T01:38:57.745Z,1001.8
2023-01-15T01:43:59.694Z,1001.8
2023-01-15T01:48:57.346Z,1001.7
2023-01-15T01:53:57.205Z,1001.6
2023-01-15T01:58:57.052Z,1001.6
2023-01-15T02:03:56.921Z,1001.7
2023-01-15T02:08:56.938Z,1001.8
2023-01-15T02:13:56.654Z,1001.9
2023-01-15T02:18:56.356Z,1001.9
2023-01-15T02:23:56.196Z,1001.9
2023-01-15T02:28:56.011Z,1001.9
2023-01-15T02:33:55.785Z,1001.9
2023-01-15T02:38:55.572Z,1001.8
2023-01-15T02:43:55.395Z,1001.6
2023-01-15T02:48:55.224Z,1001.7
2023-01-15T02:53:55.053Z,1001.5
2023-01-15T02:58:54.845Z,1001.6
2023-01-15T03:03:54.652Z,1001.6
2023-01-15T03:08:54.494Z,1001.6
2023-01-15T03:13:54.293Z,1001.8
2023-01-15T03:18:54.088Z,1001.8
2023-01-15T03:28:53.696Z,1001.9
2023-01-15T03:33:53.532Z,1001.9
2023-01-15T03:43:53.227Z,1001.8
2023-01-15T03:48:52.997Z,1001.8
2023-01-15T03:53:52.871Z,1001.8
2023-01-15T03:58:52.631Z,1001.8
2023-01-15T04:08:52.402Z,1001.7
2023-01-15T04:13:52.218Z,1001.4
2023-01-15T04:23:51.968Z,1001.3
2023-01-15T04:28:51.897Z,1001.3
2023-01-15T04:33:51.668Z,1001.3
2023-01-15T04:38:51.500Z,1001.3
2023-01-15T04:43:51.359Z,1001.3
2023-01-15T04:48:53.675Z,1001.3
2023-01-15T04:53:51.047Z,1001.3
2023-01-15T04:58:50.867Z,1001.3
2023-01-15T05:03:50.739Z,1001.4
2023-01-15T05:08:53.032Z,1001.4
2023-01-15T05:13:50.393Z,1001.3
2023-01-15T05:18:50.202Z,1001.2
2023-01-15T05:23:50.026Z,1001.2
2023-01-15T05:28:49.870Z,1001.1
2023-01-15T05:33:49.705Z,1000.9
2023-01-15T05:43:49.389Z,1000.8
2023-01-15T05:48:49.221Z,1000.6
2023-01-15T05:53:51.116Z,1000.6
2023-01-15T05:58:48.948Z,1000.5
2023-01-15T06:03:52.887Z,1000.4
2023-01-15T06:08:48.707Z,1000.3
2023-01-15T06:13:48.528Z,1000.4
2023-01-15T06:18:48.380Z,1000.3
2023-01-15T06:23:50.780Z,1000.3
2023-01-15T06:28:48.108Z,1000.4
2023-01-15T06:33:49.312Z,1000.5
2023-01-15T06:38:47.829Z,1000.6
2023-01-15T06:43:49.747Z,1000.4
2023-01-15T06:48:47.612Z,1000.5
2023-01-15T06:53:47.521Z,1000.5
2023-01-15T06:58:47.309Z,1000.4
2023-01-15T07:03:47.244Z,1000.3
2023-01-15T07:08:47.015Z,1000.1
2023-01-15T07:18:46.760Z,1000.2
2023-01-15T07:23:46.591Z,1000.3
2023-01-15T07:28:46.460Z,1000.3
2023-01-15T07:33:46.296Z,1000.3
2023-01-15T07:38:46.201Z,1000.2
2023-01-15T07:43:46.080Z,1000.2
2023-01-15T07:48:45.946Z,1000.1
2023-01-15T07:53:45.737Z,1000.1
2023-01-15T07:58:45.623Z,1000.0
2023-01-15T08:03:45.561Z,1000.1
2023-01-15T08:08:45.309Z,1000.2
2023-01-15T08:13:45.202Z,1000.3
2023-01-15T08:18:44.970Z,1000.3
2023-01-15T08:23:44.870Z,1000.3
2023-01-15T08:28:44.704Z,1000.4
2023-01-15T08:33:46.557Z,1000.4
2023-01-15T08:38:44.447Z,1000.4
2023-01-15T08:43:46.403Z,1000.4
2023-01-15T08:48:44.204Z,1000.4
2023-01-15T08:53:44.085Z,1000.5
2023-01-15T09:03:46.350Z,1000.6
2023-01-15T09:13:44.532Z,1000.7
2023-01-15T09:18:43.630Z,1000.8
2023-01-15T09:23:43.574Z,1001.0
2023-01-15T09:28:43.367Z,1001.0
2023-01-15T09:33:43.172Z,1001.0
2023-01-15T09:38:45.069Z,1000.9
2023-01-15T09:43:50.466Z,1001.1
2023-01-15T09:53:42.786Z,1001.2
2023-01-15T09:58:42.673Z,1001.3
2023-01-15T10:03:42.617Z,1001.3
2023-01-15T10:08:42.554Z,1001.2
2023-01-15T10:13:42.511Z,1001.2
2023-01-15T10:18:42.284Z,1001.2
2023-01-15T10:23:42.179Z,1001.3
2023-01-15T10:33:42.003Z,1001.3
2023-01-15T10:38:41.936Z,1001.4
2023-01-15T10:43:41.995Z,1001.4
2023-01-15T10:48:41.794Z,1001.4
2023-01-15T10:53:42.829Z,1001.4
2023-01-15T10:58:45.502Z,1001.5
2023-01-15T11:03:41.733Z,1001.5
2023-01-15T11:09:07.848Z,1001.3
2023-01-15T11:13:41.389Z,1001.2
2023-01-15T11:18:41.292Z,1001.2
2023-01-15T11:23:41.250Z,1001.1
2023-01-15T11:28:41.249Z,1001.1
2023-01-15T11:33:41.233Z,1001.0
2023-01-15T11:38:41.108Z,1001.2
2023-01-15T11:43:41.060Z,1001.1
2023-01-15T11:48:40.985Z,1001.0
2023-01-15T11:53:40.914Z,1000.9
2023-01-15T11:58:40.770Z,1000.9
2023-01-15T12:08:40.495Z,1000.8
2023-01-15T12:13:40.557Z,1000.8
2023-01-15T12:18:40.413Z,1000.7
2023-01-15T12:23:40.427Z,1000.5
2023-01-15T12:28:40.280Z,1000.5
2023-01-15T12:33:40.290Z,1000.4
2023-01-15T12:38:40.183Z,1000.3
2023-01-15T12:43:40.135Z,1000.2
2023-01-15T12:48:40.109Z,1000.2
2023-01-15T12:53:40.170Z,1000.0
2023-01-15T12:58:40.073Z,999.9
2023-01-15T13:03:39.995Z,999.9
2023-01-15T13:08:39.955Z,999.7
2023-01-15T13:13:42.439Z,999.7
2023-01-15T13:23:39.913Z,999.4
2023-01-15T13:33:39.855Z,999.4
2023-01-15T13:38:39.928Z,999.4
2023-01-15T13:43:39.816Z,999.5
2023-01-15T13:48:39.769Z,999.4
2023-01-15T13:53:39.790Z,999.3
2023-01-15T13:58:39.578Z,999.2
2023-01-15T14:03:39.522Z,999.3
2023-01-15T14:08:39.450Z,999.3
2023-01-15T14:13:41.373Z,999.3
2023-01-15T14:18:39.279Z,999.3
2023-01-15T14:23:39.285Z,999.4
2023-01-15T14:28:39.149Z,999.5
2023-01-15T14:33:39.089Z,999.7
2023-01-15T14:38:40.998Z,999.5
2023-01-15T14:48:38.801Z,999.8
2023-01-15T14:53:38.673Z,999.7
2023-01-15T14:58:38.566Z,999.7
2023-01-15T15:03:38.461Z,999.7
2023-01-15T15:13:38.269Z,999.8
2023-01-15T15:18:40.100Z,999.9
2023-01-15T15:28:37.844Z,999.9
2023-01-15T15:33:39.695Z,999.8
2023-01-15T15:38:37.596Z,999.8
2023-01-15T15:43:37.525Z,999.8
2023-01-15T15:48:37.329Z,999.8
2023-01-15T15:53:37.184Z,999.8
2023-01-15T16:03:38.925Z,999.7
2023-01-15T16:13:36.660Z,999.7
2023-01-15T16:18:36.464Z,999.6
2023-01-15T16:23:36.298Z,999.6
2023-01-15T16:28:36.143Z,999.4
2023-01-15T16:33:35.989Z,999.4
2023-01-15T16:38:35.800Z,999.2
2023-01-15T16:48:38.277Z,999.3
2023-01-15T16:53:35.250Z,999.3
2023-01-15T16:58:35.087Z,999.3
2023-01-15T17:03:34.815Z,999.2
2023-01-15T17:18:36.101Z,999.0
2023-01-15T17:23:33.968Z,999.0
2023-01-15T17:28:33.766Z,998.9
2023-01-15T17:33:33.593Z,998.9
2023-01-15T17:43:33.267Z,998.8
2023-01-15T17:48:33.055Z,998.8
2023-01-15T17:53:32.904Z,998.7
2023-01-15T17:58:32.765Z,998.6
2023-01-15T18:03:32.543Z,998.5
2023-01-15T18:08:32.360Z,998.4
2023-01-15T18:13:32.192Z,998.2
2023-01-15T18:18:32.028Z,998.1
2023-01-15T18:23:31.837Z,998.1
2023-01-15T18:28:31.699Z,998.0
2023-01-15T18:33:31.490Z,997.9
2023-01-15T18:38:31.274Z,997.8
2023-01-15T18:43:31.076Z,997.7
2023-01-15T18:48:33.391Z,997.6
2023-01-15T18:53:30.868Z,997.5
2023-01-15T18:58:32.603Z,997.3
2023-01-15T19:03:32.421Z,997.2
2023-01-15T19:08:30.148Z,997.1
2023-01-15T19:13:29.944Z,997.0
2023-01-15T19:18:29.778Z,996.9
2023-01-15T19:23:29.532Z,996.9
2023-01-15T19:28:29.299Z,996.8
2023-01-15T19:33:29.105Z,996.7
2023-01-15T19:38:28.903Z,996.5
2023-01-15T19:43:28.676Z,996.4
2023-01-15T19:48:28.453Z,996.2
2023-01-15T19:53:28.295Z,996.1
2023-01-15T19:58:28.008Z,995.9
2023-01-15T20:03:27.796Z,995.8
2023-01-15T20:08:27.610Z,995.7
2023-01-15T20:13:27.364Z,995.5
2023-01-15T20:18:27.149Z,995.4
2023-01-15T20:23:26.930Z,995.2
2023-01-15T20:28:26.721Z,995.1
2023-01-15T20:33:28.553Z,994.9
2023-01-15T20:38:26.308Z,994.7
2023-01-15T20:43:26.116Z,994.5
2023-01-15T20:48:25.848Z,994.2
2023-01-15T20:53:25.612Z,994.0
2023-01-15T20:58:25.475Z,993.8
2023-01-15T21:08:25.029Z,993.3
2023-01-15T21:13:24.805Z,993.0
2023-01-15T21:18:24.834Z,992.9
2023-01-15T21:23:24.394Z,992.7
2023-01-15T21:28:24.188Z,992.5
2023-01-15T21:33:25.926Z,992.3
2023-01-15T21:38:23.741Z,992.1
2023-01-15T21:43:23.506Z,991.9
2023-01-15T21:48:25.267Z,991.6
2023-01-15T21:53:23.068Z,991.4
2023-01-15T21:58:22.890Z,991.3
2023-01-15T22:03:22.720Z,991.2
2023-01-15T22:08:22.510Z,990.9
2023-01-15T22:13:22.412Z,990.7
2023-01-15T22:18:22.217Z,990.4
2023-01-15T22:23:22.006Z,990.2
2023-01-15T22:28:21.846Z,989.9
2023-01-15T22:33:21.684Z,989.6
2023-01-15T22:38:21.540Z,989.5
2023-01-15T22:43:21.386Z,989.1
2023-01-15T22:48:21.275Z,988.9
2023-01-15T22:53:21.179Z,988.6
2023-01-15T22:58:20.966Z,988.3
2023-01-15T23:03:20.842Z,988.1
2023-01-15T23:08:20.689Z,987.9
2023-01-15T23:13:20.512Z,987.6
2023-01-15T23:18:20.380Z,987.5
2023-01-15T23:23:20.240Z,987.3
2023-01-15T23:28:20.135Z,987.2
2023-01-15T23:33:21.973Z,986.9
2023-01-15T23:38:19.874Z,986.7
2023-01-15T23:43:19.725Z,986.6
2023-01-15T23:48:19.557Z,986.3
2023-01-15T23:58:21.322Z,986.0
